sensor_id;sensor_type;location;lat;lon;timestamp;P1;durP1;ratioP1;P2;durP2;ratioP2
36855;SDS011;22788;51.434;6.786;2023-04-24T00:00:37;2.87;;;1.50;;
36855;SDS011;22788;51.434;6.786;2023-04-24T00:03:02;1.63;;;1.33;;
36855;SDS011;22788;51.434;6.786;2023-04-24T00:05:28;2.17;;;1.40;;
36855;SDS011;22788;51.434;6.786;2023-04-24T00:07:54;1.65;;;1.40;;
36855;SDS011;22788;51.434;6.786;2023-04-24T00:10:19;3.67;;;1.20;;
36855;SDS011;22788;51.434;6.786;2023-04-24T00:12:45;1.15;;;0.93;;
36855;SDS011;22788;51.434;6.786;2023-04-24T00:15:12;2.08;;;1.23;;
36855;SDS011;22788;51.434;6.786;2023-04-24T00:17:38;2.22;;;1.30;;
36855;SDS011;22788;51.434;6.786;2023-04-24T00:20:04;2.10;;;1.17;;
36855;SDS011;22788;51.434;6.786;2023-04-24T00:22:30;1.17;;;1.03;;
36855;SDS011;22788;51.434;6.786;2023-04-24T00:24:56;1.20;;;1.10;;
36855;SDS011;22788;51.434;6.786;2023-04-24T00:27:22;2.42;;;1.50;;
36855;SDS011;22788;51.434;6.786;2023-04-24T00:29:47;1.53;;;1.10;;
36855;SDS011;22788;51.434;6.786;2023-04-24T00:32:14;1.48;;;1.38;;
36855;SDS011;22788;51.434;6.786;2023-04-24T00:34:40;3.33;;;1.70;;
36855;SDS011;22788;51.434;6.786;2023-04-24T00:37:06;2.47;;;1.80;;
36855;SDS011;22788;51.434;6.786;2023-04-24T00:39:32;1.90;;;1.10;;
36855;SDS011;22788;51.434;6.786;2023-04-24T00:41:58;3.13;;;2.00;;
36855;SDS011;22788;51.434;6.786;2023-04-24T00:44:23;3.70;;;1.55;;
36855;SDS011;22788;51.434;6.786;2023-04-24T00:46:49;3.83;;;1.63;;
36855;SDS011;22788;51.434;6.786;2023-04-24T00:49:16;2.70;;;1.60;;
36855;SDS011;22788;51.434;6.786;2023-04-24T00:51:43;1.80;;;1.70;;
36855;SDS011;22788;51.434;6.786;2023-04-24T00:54:09;2.63;;;2.00;;
36855;SDS011;22788;51.434;6.786;2023-04-24T00:56:34;4.63;;;2.10;;
36855;SDS011;22788;51.434;6.786;2023-04-24T00:59:00;2.73;;;1.80;;
36855;SDS011;22788;51.434;6.786;2023-04-24T01:01:25;3.53;;;2.83;;
36855;SDS011;22788;51.434;6.786;2023-04-24T01:03:51;6.20;;;2.20;;
36855;SDS011;22788;51.434;6.786;2023-04-24T01:06:19;3.13;;;2.43;;
36855;SDS011;22788;51.434;6.786;2023-04-24T01:08:46;3.60;;;1.73;;
36855;SDS011;22788;51.434;6.786;2023-04-24T01:11:13;2.50;;;1.93;;
36855;SDS011;22788;51.434;6.786;2023-04-24T01:13:39;3.50;;;1.83;;
36855;SDS011;22788;51.434;6.786;2023-04-24T01:16:05;1.97;;;1.80;;
36855;SDS011;22788;51.434;6.786;2023-04-24T01:18:31;3.23;;;1.87;;
36855;SDS011;22788;51.434;6.786;2023-04-24T01:20:57;3.27;;;2.23;;
36855;SDS011;22788;51.434;6.786;2023-04-24T01:23:25;4.20;;;2.50;;
36855;SDS011;22788;51.434;6.786;2023-04-24T01:25:51;2.90;;;2.50;;
36855;SDS011;22788;51.434;6.786;2023-04-24T01:28:17;3.65;;;2.80;;
36855;SDS011;22788;51.434;6.786;2023-04-24T01:30:43;2.67;;;1.60;;
36855;SDS011;22788;51.434;6.786;2023-04-24T01:33:09;2.47;;;1.80;;
36855;SDS011;22788;51.434;6.786;2023-04-24T01:35:35;2.43;;;2.20;;
36855;SDS011;22788;51.434;6.786;2023-04-24T01:38:01;4.93;;;3.47;;
36855;SDS011;22788;51.434;6.786;2023-04-24T01:40:28;4.30;;;2.83;;
36855;SDS011;22788;51.434;6.786;2023-04-24T01:42:53;6.03;;;3.63;;
36855;SDS011;22788;51.434;6.786;2023-04-24T01:45:19;5.10;;;3.20;;
36855;SDS011;22788;51.434;6.786;2023-04-24T01:47:45;6.87;;;2.83;;
36855;SDS011;22788;51.434;6.786;2023-04-24T01:50:12;4.10;;;3.13;;
36855;SDS011;22788;51.434;6.786;2023-04-24T01:52:38;5.32;;;2.38;;
36855;SDS011;22788;51.434;6.786;2023-04-24T01:55:04;4.60;;;2.97;;
36855;SDS011;22788;51.434;6.786;2023-04-24T01:57:32;3.87;;;2.83;;
36855;SDS011;22788;51.434;6.786;2023-04-24T01:59:58;3.40;;;2.92;;
36855;SDS011;22788;51.434;6.786;2023-04-24T02:02:24;4.97;;;3.20;;
36855;SDS011;22788;51.434;6.786;2023-04-24T02:04:50;7.68;;;4.85;;
36855;SDS011;22788;51.434;6.786;2023-04-24T02:07:16;5.30;;;3.03;;
36855;SDS011;22788;51.434;6.786;2023-04-24T02:09:41;5.13;;;3.57;;
36855;SDS011;22788;51.434;6.786;2023-04-24T02:12:07;6.40;;;4.20;;
36855;SDS011;22788;51.434;6.786;2023-04-24T02:14:34;6.03;;;4.17;;
36855;SDS011;22788;51.434;6.786;2023-04-24T02:17:00;6.20;;;4.23;;
36855;SDS011;22788;51.434;6.786;2023-04-24T02:19:25;6.73;;;3.80;;
36855;SDS011;22788;51.434;6.786;2023-04-24T02:21:51;7.80;;;4.57;;
36855;SDS011;22788;51.434;6.786;2023-04-24T02:24:17;8.52;;;4.38;;
36855;SDS011;22788;51.434;6.786;2023-04-24T02:26:42;7.53;;;4.60;;
36855;SDS011;22788;51.434;6.786;2023-04-24T02:29:08;7.43;;;5.30;;
36855;SDS011;22788;51.434;6.786;2023-04-24T02:31:35;9.30;;;5.63;;
36855;SDS011;22788;51.434;6.786;2023-04-24T02:34:00;8.30;;;5.27;;
36855;SDS011;22788;51.434;6.786;2023-04-24T02:36:26;7.27;;;3.83;;
36855;SDS011;22788;51.434;6.786;2023-04-24T02:38:52;6.53;;;4.20;;
36855;SDS011;22788;51.434;6.786;2023-04-24T02:41:17;5.07;;;3.63;;
36855;SDS011;22788;51.434;6.786;2023-04-24T02:43:43;7.13;;;4.67;;
36855;SDS011;22788;51.434;6.786;2023-04-24T02:46:09;10.90;;;5.07;;
36855;SDS011;22788;51.434;6.786;2023-04-24T02:48:36;9.32;;;5.00;;
36855;SDS011;22788;51.434;6.786;2023-04-24T02:51:01;7.17;;;4.83;;
36855;SDS011;22788;51.434;6.786;2023-04-24T02:53:27;6.53;;;4.40;;
36855;SDS011;22788;51.434;6.786;2023-04-24T02:55:53;12.10;;;5.53;;
36855;SDS011;22788;51.434;6.786;2023-04-24T02:58:18;5.95;;;5.20;;
36855;SDS011;22788;51.434;6.786;2023-04-24T03:00:44;7.20;;;4.23;;
36855;SDS011;22788;51.434;6.786;2023-04-24T03:03:09;10.40;;;5.90;;
36855;SDS011;22788;51.434;6.786;2023-04-24T03:05:36;12.23;;;6.53;;
36855;SDS011;22788;51.434;6.786;2023-04-24T03:08:02;9.93;;;6.20;;
36855;SDS011;22788;51.434;6.786;2023-04-24T03:10:27;6.93;;;5.43;;
36855;SDS011;22788;51.434;6.786;2023-04-24T03:12:53;9.83;;;5.17;;
36855;SDS011;22788;51.434;6.786;2023-04-24T03:15:19;9.73;;;6.60;;
36855;SDS011;22788;51.434;6.786;2023-04-24T03:17:44;10.00;;;6.37;;
36855;SDS011;22788;51.434;6.786;2023-04-24T03:20:10;10.37;;;5.33;;
36855;SDS011;22788;51.434;6.786;2023-04-24T03:22:37;12.10;;;7.47;;
36855;SDS011;22788;51.434;6.786;2023-04-24T03:25:03;7.77;;;4.50;;
36855;SDS011;22788;51.434;6.786;2023-04-24T03:27:29;9.53;;;6.77;;
36855;SDS011;22788;51.434;6.786;2023-04-24T03:29:55;7.47;;;4.60;;
36855;SDS011;22788;51.434;6.786;2023-04-24T03:32:20;12.73;;;7.77;;
36855;SDS011;22788;51.434;6.786;2023-04-24T03:34:46;15.67;;;9.17;;
36855;SDS011;22788;51.434;6.786;2023-04-24T03:37:11;12.57;;;7.43;;
36855;SDS011;22788;51.434;6.786;2023-04-24T03:39:38;11.43;;;5.93;;
36855;SDS011;22788;51.434;6.786;2023-04-24T03:42:04;10.20;;;6.50;;
36855;SDS011;22788;51.434;6.786;2023-04-24T03:44:30;10.73;;;5.60;;
36855;SDS011;22788;51.434;6.786;2023-04-24T03:46:55;9.57;;;5.93;;
36855;SDS011;22788;51.434;6.786;2023-04-24T03:49:22;8.33;;;6.10;;
36855;SDS011;22788;51.434;6.786;2023-04-24T03:51:48;12.03;;;6.33;;
36855;SDS011;22788;51.434;6.786;2023-04-24T03:54:13;11.20;;;7.20;;
36855;SDS011;22788;51.434;6.786;2023-04-24T03:56:40;10.55;;;5.82;;
36855;SDS011;22788;51.434;6.786;2023-04-24T03:59:06;10.17;;;6.13;;
36855;SDS011;22788;51.434;6.786;2023-04-24T04:01:32;8.90;;;6.43;;
36855;SDS011;22788;51.434;6.786;2023-04-24T04:03:57;11.23;;;8.77;;
36855;SDS011;22788;51.434;6.786;2023-04-24T04:06:23;13.87;;;8.50;;
36855;SDS011;22788;51.434;6.786;2023-04-24T04:08:48;9.23;;;6.20;;
36855;SDS011;22788;51.434;6.786;2023-04-24T04:11:14;8.70;;;6.30;;
36855;SDS011;22788;51.434;6.786;2023-04-24T04:13:41;9.67;;;6.00;;
36855;SDS011;22788;51.434;6.786;2023-04-24T04:16:07;10.70;;;5.73;;
36855;SDS011;22788;51.434;6.786;2023-04-24T04:18:34;8.83;;;6.63;;
36855;SDS011;22788;51.434;6.786;2023-04-24T04:20:59;7.97;;;5.90;;
36855;SDS011;22788;51.434;6.786;2023-04-24T04:23:25;10.40;;;6.53;;
36855;SDS011;22788;51.434;6.786;2023-04-24T04:25:50;10.83;;;7.43;;
36855;SDS011;22788;51.434;6.786;2023-04-24T04:28:16;12.70;;;7.47;;
36855;SDS011;22788;51.434;6.786;2023-04-24T04:30:43;10.30;;;5.80;;
36855;SDS011;22788;51.434;6.786;2023-04-24T04:33:08;9.93;;;6.27;;
36855;SDS011;22788;51.434;6.786;2023-04-24T04:35:34;10.60;;;6.83;;
36855;SDS011;22788;51.434;6.786;2023-04-24T04:38:00;9.57;;;5.80;;
36855;SDS011;22788;51.434;6.786;2023-04-24T04:40:25;9.20;;;5.80;;
36855;SDS011;22788;51.434;6.786;2023-04-24T04:42:51;8.70;;;5.87;;
36855;SDS011;22788;51.434;6.786;2023-04-24T04:45:16;9.33;;;5.60;;
36855;SDS011;22788;51.434;6.786;2023-04-24T04:47:43;11.83;;;6.27;;
36855;SDS011;22788;51.434;6.786;2023-04-24T04:50:09;8.43;;;5.33;;
36855;SDS011;22788;51.434;6.786;2023-04-24T04:52:35;7.93;;;5.67;;
36855;SDS011;22788;51.434;6.786;2023-04-24T04:55:00;7.33;;;5.03;;
36855;SDS011;22788;51.434;6.786;2023-04-24T04:57:26;7.17;;;5.40;;
36855;SDS011;22788;51.434;6.786;2023-04-24T04:59:52;8.33;;;5.93;;
36855;SDS011;22788;51.434;6.786;2023-04-24T05:02:17;7.90;;;5.83;;
36855;SDS011;22788;51.434;6.786;2023-04-24T05:04:45;7.90;;;6.10;;
36855;SDS011;22788;51.434;6.786;2023-04-24T05:07:10;7.63;;;4.93;;
36855;SDS011;22788;51.434;6.786;2023-04-24T05:09:36;9.57;;;6.80;;
36855;SDS011;22788;51.434;6.786;2023-04-24T05:12:02;7.77;;;5.53;;
36855;SDS011;22788;51.434;6.786;2023-04-24T05:14:28;9.13;;;5.93;;
36855;SDS011;22788;51.434;6.786;2023-04-24T05:16:54;12.27;;;6.97;;
36855;SDS011;22788;51.434;6.786;2023-04-24T05:19:19;12.47;;;7.60;;
36855;SDS011;22788;51.434;6.786;2023-04-24T05:21:46;12.53;;;5.87;;
36855;SDS011;22788;51.434;6.786;2023-04-24T05:24:12;8.03;;;5.17;;
36855;SDS011;22788;51.434;6.786;2023-04-24T05:26:37;8.90;;;5.55;;
36855;SDS011;22788;51.434;6.786;2023-04-24T05:29:03;9.97;;;5.57;;
36855;SDS011;22788;51.434;6.786;2023-04-24T05:31:29;9.17;;;5.53;;
36855;SDS011;22788;51.434;6.786;2023-04-24T05:33:54;10.00;;;4.83;;
36855;SDS011;22788;51.434;6.786;2023-04-24T05:36:20;8.70;;;6.23;;
36855;SDS011;22788;51.434;6.786;2023-04-24T05:38:47;6.70;;;5.03;;
36855;SDS011;22788;51.434;6.786;2023-04-24T05:41:13;6.60;;;5.10;;
36855;SDS011;22788;51.434;6.786;2023-04-24T05:43:38;8.60;;;5.47;;
36855;SDS011;22788;51.434;6.786;2023-04-24T05:46:04;7.83;;;5.47;;
36855;SDS011;22788;51.434;6.786;2023-04-24T05:48:30;8.20;;;5.20;;
36855;SDS011;22788;51.434;6.786;2023-04-24T05:50:55;7.70;;;5.03;;
36855;SDS011;22788;51.434;6.786;2023-04-24T05:53:21;9.37;;;6.90;;
36855;SDS011;22788;51.434;6.786;2023-04-24T05:55:48;7.27;;;5.43;;
36855;SDS011;22788;51.434;6.786;2023-04-24T05:58:13;7.80;;;5.30;;
36855;SDS011;22788;51.434;6.786;2023-04-24T06:00:39;7.93;;;5.73;;
36855;SDS011;22788;51.434;6.786;2023-04-24T06:03:05;9.07;;;6.07;;
36855;SDS011;22788;51.434;6.786;2023-04-24T06:05:31;10.07;;;6.03;;
36855;SDS011;22788;51.434;6.786;2023-04-24T06:07:57;6.37;;;5.47;;
36855;SDS011;22788;51.434;6.786;2023-04-24T06:10:22;8.03;;;5.37;;
36855;SDS011;22788;51.434;6.786;2023-04-24T06:12:50;10.00;;;5.83;;
36855;SDS011;22788;51.434;6.786;2023-04-24T06:15:15;10.20;;;6.23;;
36855;SDS011;22788;51.434;6.786;2023-04-24T06:17:41;7.53;;;5.87;;
36855;SDS011;22788;51.434;6.786;2023-04-24T06:20:07;7.77;;;5.53;;
36855;SDS011;22788;51.434;6.786;2023-04-24T06:22:33;5.43;;;4.43;;
36855;SDS011;22788;51.434;6.786;2023-04-24T06:24:59;5.97;;;4.60;;
36855;SDS011;22788;51.434;6.786;2023-04-24T06:27:24;5.17;;;4.43;;
36855;SDS011;22788;51.434;6.786;2023-04-24T06:29:51;9.07;;;5.10;;
36855;SDS011;22788;51.434;6.786;2023-04-24T06:32:17;10.43;;;6.37;;
36855;SDS011;22788;51.434;6.786;2023-04-24T06:34:43;5.87;;;4.17;;
36855;SDS011;22788;51.434;6.786;2023-04-24T06:37:08;6.03;;;4.57;;
36855;SDS011;22788;51.434;6.786;2023-04-24T06:39:34;6.73;;;4.93;;
36855;SDS011;22788;51.434;6.786;2023-04-24T06:42:01;8.50;;;4.47;;
36855;SDS011;22788;51.434;6.786;2023-04-24T06:44:27;5.07;;;4.17;;
36855;SDS011;22788;51.434;6.786;2023-04-24T06:46:54;7.70;;;5.07;;
36855;SDS011;22788;51.434;6.786;2023-04-24T06:49:20;4.60;;;4.00;;
36855;SDS011;22788;51.434;6.786;2023-04-24T06:51:45;7.10;;;4.10;;
36855;SDS011;22788;51.434;6.786;2023-04-24T06:54:11;6.20;;;4.40;;
36855;SDS011;22788;51.434;6.786;2023-04-24T06:56:36;5.60;;;4.47;;
36855;SDS011;22788;51.434;6.786;2023-04-24T06:59:02;5.37;;;4.10;;
36855;SDS011;22788;51.434;6.786;2023-04-24T07:01:28;5.50;;;4.00;;
36855;SDS011;22788;51.434;6.786;2023-04-24T07:03:55;5.53;;;4.13;;
36855;SDS011;22788;51.434;6.786;2023-04-24T07:06:20;6.93;;;3.57;;
36855;SDS011;22788;51.434;6.786;2023-04-24T07:08:46;4.20;;;3.60;;
36855;SDS011;22788;51.434;6.786;2023-04-24T07:11:11;6.30;;;3.23;;
36855;SDS011;22788;51.434;6.786;2023-04-24T07:13:37;4.90;;;3.20;;
36855;SDS011;22788;51.434;6.786;2023-04-24T07:16:03;4.70;;;3.00;;
36855;SDS011;22788;51.434;6.786;2023-04-24T07:18:28;3.40;;;2.80;;
36855;SDS011;22788;51.434;6.786;2023-04-24T07:20:55;4.37;;;2.97;;
36855;SDS011;22788;51.434;6.786;2023-04-24T07:23:21;8.63;;;5.07;;
36855;SDS011;22788;51.434;6.786;2023-04-24T07:25:46;5.37;;;2.70;;
36855;SDS011;22788;51.434;6.786;2023-04-24T07:28:12;4.43;;;2.80;;
36855;SDS011;22788;51.434;6.786;2023-04-24T07:30:38;4.13;;;2.83;;
36855;SDS011;22788;51.434;6.786;2023-04-24T07:33:03;4.13;;;2.73;;
36855;SDS011;22788;51.434;6.786;2023-04-24T07:35:29;3.27;;;2.97;;
36855;SDS011;22788;51.434;6.786;2023-04-24T07:37:56;2.47;;;2.10;;
36855;SDS011;22788;51.434;6.786;2023-04-24T07:40:22;2.80;;;2.43;;
36855;SDS011;22788;51.434;6.786;2023-04-24T07:42:47;3.63;;;2.50;;
36855;SDS011;22788;51.434;6.786;2023-04-24T07:45:13;2.20;;;1.90;;
36855;SDS011;22788;51.434;6.786;2023-04-24T07:47:39;3.43;;;2.00;;
36855;SDS011;22788;51.434;6.786;2023-04-24T07:50:06;2.27;;;2.07;;
36855;SDS011;22788;51.434;6.786;2023-04-24T07:52:32;4.40;;;1.90;;
36855;SDS011;22788;51.434;6.786;2023-04-24T07:55:03;2.87;;;2.40;;
36855;SDS011;22788;51.434;6.786;2023-04-24T07:57:29;1.93;;;1.63;;
36855;SDS011;22788;51.434;6.786;2023-04-24T07:59:54;2.13;;;1.67;;
36855;SDS011;22788;51.434;6.786;2023-04-24T08:02:20;1.60;;;1.50;;
36855;SDS011;22788;51.434;6.786;2023-04-24T08:04:46;2.77;;;1.47;;
36855;SDS011;22788;51.434;6.786;2023-04-24T08:07:11;1.80;;;1.30;;
36855;SDS011;22788;51.434;6.786;2023-04-24T08:09:37;1.90;;;1.30;;
36855;SDS011;22788;51.434;6.786;2023-04-24T08:12:04;1.90;;;1.33;;
36855;SDS011;22788;51.434;6.786;2023-04-24T08:14:30;2.00;;;1.60;;
36855;SDS011;22788;51.434;6.786;2023-04-24T08:16:56;2.20;;;1.50;;
36855;SDS011;22788;51.434;6.786;2023-04-24T08:19:21;1.83;;;1.67;;
36855;SDS011;22788;51.434;6.786;2023-04-24T08:21:47;1.63;;;1.43;;
36855;SDS011;22788;51.434;6.786;2023-04-24T08:24:13;3.27;;;1.60;;
36855;SDS011;22788;51.434;6.786;2023-04-24T08:26:39;1.70;;;1.43;;
36855;SDS011;22788;51.434;6.786;2023-04-24T08:29:06;1.80;;;1.50;;
36855;SDS011;22788;51.434;6.786;2023-04-24T08:31:32;1.57;;;1.40;;
36855;SDS011;22788;51.434;6.786;2023-04-24T08:33:57;1.73;;;1.30;;
36855;SDS011;22788;51.434;6.786;2023-04-24T08:36:23;1.97;;;1.30;;
36855;SDS011;22788;51.434;6.786;2023-04-24T08:38:49;1.60;;;1.30;;
36855;SDS011;22788;51.434;6.786;2023-04-24T08:41:15;3.17;;;1.30;;
36855;SDS011;22788;51.434;6.786;2023-04-24T08:43:40;2.03;;;1.37;;
36855;SDS011;22788;51.434;6.786;2023-04-24T08:46:12;1.37;;;1.10;;
36855;SDS011;22788;51.434;6.786;2023-04-24T08:48:38;2.73;;;1.23;;
36855;SDS011;22788;51.434;6.786;2023-04-24T08:51:04;1.50;;;1.30;;
36855;SDS011;22788;51.434;6.786;2023-04-24T08:53:32;1.47;;;1.10;;
36855;SDS011;22788;51.434;6.786;2023-04-24T08:55:58;1.97;;;1.03;;
36855;SDS011;22788;51.434;6.786;2023-04-24T08:58:25;1.60;;;1.10;;
36855;SDS011;22788;51.434;6.786;2023-04-24T09:00:50;2.70;;;1.30;;
36855;SDS011;22788;51.434;6.786;2023-04-24T09:03:17;2.37;;;1.30;;
36855;SDS011;22788;51.434;6.786;2023-04-24T09:05:44;1.40;;;1.30;;
36855;SDS011;22788;51.434;6.786;2023-04-24T09:08:13;2.70;;;1.63;;
36855;SDS011;22788;51.434;6.786;2023-04-24T09:10:39;2.37;;;2.13;;
36855;SDS011;22788;51.434;6.786;2023-04-24T09:13:05;4.13;;;2.43;;
36855;SDS011;22788;51.434;6.786;2023-04-24T09:15:31;2.90;;;2.20;;
36855;SDS011;22788;51.434;6.786;2023-04-24T09:17:57;4.93;;;3.40;;
36855;SDS011;22788;51.434;6.786;2023-04-24T09:20:24;5.10;;;3.37;;
36855;SDS011;22788;51.434;6.786;2023-04-24T09:22:52;3.77;;;2.27;;
36855;SDS011;22788;51.434;6.786;2023-04-24T09:25:18;5.63;;;3.33;;
36855;SDS011;22788;51.434;6.786;2023-04-24T09:27:44;4.23;;;3.10;;
36855;SDS011;22788;51.434;6.786;2023-04-24T09:30:10;4.67;;;2.97;;
36855;SDS011;22788;51.434;6.786;2023-04-24T09:32:36;5.03;;;2.80;;
36855;SDS011;22788;51.434;6.786;2023-04-24T09:35:09;4.27;;;2.90;;
36855;SDS011;22788;51.434;6.786;2023-04-24T09:37:37;3.70;;;2.90;;
36855;SDS011;22788;51.434;6.786;2023-04-24T09:40:07;3.30;;;2.90;;
36855;SDS011;22788;51.434;6.786;2023-04-24T09:42:34;4.47;;;2.87;;
36855;SDS011;22788;51.434;6.786;2023-04-24T09:44:59;5.57;;;2.97;;
36855;SDS011;22788;51.434;6.786;2023-04-24T09:47:25;4.40;;;3.00;;
36855;SDS011;22788;51.434;6.786;2023-04-24T09:49:50;4.77;;;3.40;;
36855;SDS011;22788;51.434;6.786;2023-04-24T09:52:23;4.87;;;2.77;;
36855;SDS011;22788;51.434;6.786;2023-04-24T09:54:53;7.23;;;3.57;;
36855;SDS011;22788;51.434;6.786;2023-04-24T09:57:20;4.67;;;2.80;;
36855;SDS011;22788;51.434;6.786;2023-04-24T09:59:45;4.97;;;2.77;;
36855;SDS011;22788;51.434;6.786;2023-04-24T10:02:16;4.43;;;2.97;;
36855;SDS011;22788;51.434;6.786;2023-04-24T10:04:53;6.30;;;3.80;;
36855;SDS011;22788;51.434;6.786;2023-04-24T10:07:19;6.83;;;3.97;;
36855;SDS011;22788;51.434;6.786;2023-04-24T10:09:45;4.33;;;2.97;;
36855;SDS011;22788;51.434;6.786;2023-04-24T10:12:12;6.27;;;4.00;;
36855;SDS011;22788;51.434;6.786;2023-04-24T10:14:39;5.87;;;3.37;;
36855;SDS011;22788;51.434;6.786;2023-04-24T10:17:05;6.17;;;3.43;;
36855;SDS011;22788;51.434;6.786;2023-04-24T10:19:31;5.93;;;3.30;;
36855;SDS011;22788;51.434;6.786;2023-04-24T10:21:58;6.67;;;3.03;;
36855;SDS011;22788;51.434;6.786;2023-04-24T10:24:25;6.70;;;3.53;;
36855;SDS011;22788;51.434;6.786;2023-04-24T10:26:51;4.70;;;2.80;;
36855;SDS011;22788;51.434;6.786;2023-04-24T10:29:19;8.13;;;3.23;;
36855;SDS011;22788;51.434;6.786;2023-04-24T10:31:44;5.77;;;3.40;;
36855;SDS011;22788;51.434;6.786;2023-04-24T10:34:10;4.67;;;2.83;;
36855;SDS011;22788;51.434;6.786;2023-04-24T10:36:37;5.13;;;3.33;;
36855;SDS011;22788;51.434;6.786;2023-04-24T10:39:06;9.70;;;3.37;;
36855;SDS011;22788;51.434;6.786;2023-04-24T10:41:36;11.70;;;3.23;;
36855;SDS011;22788;51.434;6.786;2023-04-24T10:44:05;8.27;;;3.97;;
36855;SDS011;22788;51.434;6.786;2023-04-24T10:46:33;7.57;;;3.80;;
36855;SDS011;22788;51.434;6.786;2023-04-24T10:48:59;4.90;;;3.10;;
36855;SDS011;22788;51.434;6.786;2023-04-24T10:51:42;6.60;;;3.40;;
36855;SDS011;22788;51.434;6.786;2023-04-24T10:54:21;8.37;;;3.70;;
36855;SDS011;22788;51.434;6.786;2023-04-24T10:56:47;4.80;;;3.07;;
36855;SDS011;22788;51.434;6.786;2023-04-24T10:59:21;9.10;;;3.50;;
36855;SDS011;22788;51.434;6.786;2023-04-24T11:01:55;7.70;;;4.30;;
36855;SDS011;22788;51.434;6.786;2023-04-24T11:04:34;5.60;;;3.00;;
36855;SDS011;22788;51.434;6.786;2023-04-24T11:07:11;10.20;;;3.87;;
36855;SDS011;22788;51.434;6.786;2023-04-24T11:09:49;7.70;;;3.47;;
36855;SDS011;22788;51.434;6.786;2023-04-24T11:12:32;6.93;;;3.40;;
36855;SDS011;22788;51.434;6.786;2023-04-24T11:15:00;10.30;;;4.57;;
36855;SDS011;22788;51.434;6.786;2023-04-24T11:17:33;9.90;;;5.13;;
36855;SDS011;22788;51.434;6.786;2023-04-24T11:20:01;9.30;;;4.80;;
36855;SDS011;22788;51.434;6.786;2023-04-24T11:22:29;6.23;;;3.13;;
36855;SDS011;22788;51.434;6.786;2023-04-24T11:25:00;9.67;;;3.60;;
36855;SDS011;22788;51.434;6.786;2023-04-24T11:27:29;10.70;;;3.70;;
36855;SDS011;22788;51.434;6.786;2023-04-24T11:30:02;8.87;;;3.90;;
36855;SDS011;22788;51.434;6.786;2023-04-24T11:32:29;5.57;;;3.30;;
36855;SDS011;22788;51.434;6.786;2023-04-24T11:34:57;6.33;;;3.00;;
36855;SDS011;22788;51.434;6.786;2023-04-24T11:37:25;7.90;;;3.63;;
36855;SDS011;22788;51.434;6.786;2023-04-24T11:40:04;7.03;;;2.90;;
36855;SDS011;22788;51.434;6.786;2023-04-24T11:42:44;7.67;;;3.33;;
36855;SDS011;22788;51.434;6.786;2023-04-24T11:45:21;6.10;;;3.20;;
36855;SDS011;22788;51.434;6.786;2023-04-24T11:47:59;3.80;;;3.00;;
36855;SDS011;22788;51.434;6.786;2023-04-24T11:50:34;6.97;;;3.27;;
36855;SDS011;22788;51.434;6.786;2023-04-24T11:53:00;9.27;;;3.67;;
36855;SDS011;22788;51.434;6.786;2023-04-24T11:55:30;7.47;;;3.43;;
36855;SDS011;22788;51.434;6.786;2023-04-24T11:57:57;5.03;;;3.07;;
36855;SDS011;22788;51.434;6.786;2023-04-24T12:00:25;8.60;;;3.50;;
36855;SDS011;22788;51.434;6.786;2023-04-24T12:03:03;9.57;;;3.00;;
36855;SDS011;22788;51.434;6.786;2023-04-24T12:05:31;4.83;;;2.73;;
36855;SDS011;22788;51.434;6.786;2023-04-24T12:08:00;8.63;;;3.03;;
36855;SDS011;22788;51.434;6.786;2023-04-24T12:10:27;9.13;;;3.33;;
36855;SDS011;22788;51.434;6.786;2023-04-24T12:12:55;7.27;;;3.83;;
36855;SDS011;22788;51.434;6.786;2023-04-24T12:15:22;6.27;;;3.80;;
36855;SDS011;22788;51.434;6.786;2023-04-24T12:17:49;7.47;;;3.17;;
36855;SDS011;22788;51.434;6.786;2023-04-24T12:20:16;9.33;;;4.10;;
36855;SDS011;22788;51.434;6.786;2023-04-24T12:22:47;5.10;;;3.20;;
36855;SDS011;22788;51.434;6.786;2023-04-24T12:25:14;7.80;;;3.10;;
36855;SDS011;22788;51.434;6.786;2023-04-24T12:27:40;7.13;;;2.73;;
36855;SDS011;22788;51.434;6.786;2023-04-24T12:30:10;6.63;;;3.10;;
36855;SDS011;22788;51.434;6.786;2023-04-24T12:32:40;6.60;;;3.20;;
36855;SDS011;22788;51.434;6.786;2023-04-24T12:35:07;7.43;;;3.33;;
36855;SDS011;22788;51.434;6.786;2023-04-24T12:37:33;7.10;;;2.97;;
36855;SDS011;22788;51.434;6.786;2023-04-24T12:40:01;7.27;;;3.27;;
36855;SDS011;22788;51.434;6.786;2023-04-24T12:42:29;4.87;;;2.50;;
36855;SDS011;22788;51.434;6.786;2023-04-24T12:44:56;4.40;;;2.47;;
36855;SDS011;22788;51.434;6.786;2023-04-24T12:47:22;5.43;;;2.70;;
36855;SDS011;22788;51.434;6.786;2023-04-24T12:49:47;4.53;;;2.47;;
36855;SDS011;22788;51.434;6.786;2023-04-24T12:52:13;2.57;;;2.17;;
36855;SDS011;22788;51.434;6.786;2023-04-24T12:54:38;3.97;;;2.27;;
36855;SDS011;22788;51.434;6.786;2023-04-24T12:57:05;3.83;;;2.20;;
36855;SDS011;22788;51.434;6.786;2023-04-24T12:59:31;6.60;;;3.10;;
36855;SDS011;22788;51.434;6.786;2023-04-24T13:01:57;2.40;;;2.20;;
36855;SDS011;22788;51.434;6.786;2023-04-24T13:04:23;6.00;;;2.37;;
36855;SDS011;22788;51.434;6.786;2023-04-24T13:06:48;2.60;;;1.87;;
36855;SDS011;22788;51.434;6.786;2023-04-24T13:09:14;5.53;;;1.90;;
36855;SDS011;22788;51.434;6.786;2023-04-24T13:11:39;3.37;;;1.80;;
36855;SDS011;22788;51.434;6.786;2023-04-24T13:14:06;4.80;;;1.90;;
36855;SDS011;22788;51.434;6.786;2023-04-24T13:16:32;3.27;;;1.70;;
36855;SDS011;22788;51.434;6.786;2023-04-24T13:18:58;2.60;;;2.03;;
36855;SDS011;22788;51.434;6.786;2023-04-24T13:21:24;6.07;;;1.90;;
36855;SDS011;22788;51.434;6.786;2023-04-24T13:23:49;3.53;;;2.40;;
36855;SDS011;22788;51.434;6.786;2023-04-24T13:26:15;3.90;;;1.83;;
36855;SDS011;22788;51.434;6.786;2023-04-24T13:28:41;8.37;;;2.30;;
36855;SDS011;22788;51.434;6.786;2023-04-24T13:31:08;3.20;;;1.43;;
36855;SDS011;22788;51.434;6.786;2023-04-24T13:33:34;2.93;;;1.60;;
36855;SDS011;22788;51.434;6.786;2023-04-24T13:35:59;6.00;;;1.70;;
36855;SDS011;22788;51.434;6.786;2023-04-24T13:38:25;2.53;;;1.60;;
36855;SDS011;22788;51.434;6.786;2023-04-24T13:40:51;5.23;;;2.10;;
36855;SDS011;22788;51.434;6.786;2023-04-24T13:43:17;1.67;;;1.47;;
36855;SDS011;22788;51.434;6.786;2023-04-24T13:45:42;4.47;;;1.70;;
36855;SDS011;22788;51.434;6.786;2023-04-24T13:48:09;4.40;;;1.70;;
36855;SDS011;22788;51.434;6.786;2023-04-24T13:50:35;4.00;;;2.20;;
36855;SDS011;22788;51.434;6.786;2023-04-24T13:53:01;3.83;;;1.60;;
36855;SDS011;22788;51.434;6.786;2023-04-24T13:55:27;2.97;;;1.80;;
36855;SDS011;22788;51.434;6.786;2023-04-24T13:57:53;3.97;;;1.57;;
36855;SDS011;22788;51.434;6.786;2023-04-24T14:00:19;3.57;;;1.67;;
36855;SDS011;22788;51.434;6.786;2023-04-24T14:02:45;5.40;;;1.60;;
36855;SDS011;22788;51.434;6.786;2023-04-24T14:05:12;3.77;;;2.17;;
36855;SDS011;22788;51.434;6.786;2023-04-24T14:07:37;4.53;;;1.80;;
36855;SDS011;22788;51.434;6.786;2023-04-24T14:10:03;4.50;;;1.70;;
36855;SDS011;22788;51.434;6.786;2023-04-24T14:12:30;2.53;;;1.50;;
36855;SDS011;22788;51.434;6.786;2023-04-24T14:14:55;4.10;;;1.67;;
36855;SDS011;22788;51.434;6.786;2023-04-24T14:17:21;2.43;;;1.60;;
36855;SDS011;22788;51.434;6.786;2023-04-24T14:19:46;1.80;;;1.43;;
36855;SDS011;22788;51.434;6.786;2023-04-24T14:22:13;3.20;;;1.60;;
36855;SDS011;22788;51.434;6.786;2023-04-24T14:24:39;2.70;;;1.70;;
36855;SDS011;22788;51.434;6.786;2023-04-24T14:27:05;3.67;;;1.60;;
36855;SDS011;22788;51.434;6.786;2023-04-24T14:29:30;7.90;;;1.90;;
36855;SDS011;22788;51.434;6.786;2023-04-24T14:31:56;3.30;;;1.30;;
36855;SDS011;22788;51.434;6.786;2023-04-24T14:34:21;1.97;;;1.43;;
36855;SDS011;22788;51.434;6.786;2023-04-24T14:36:47;1.77;;;1.30;;
36855;SDS011;22788;51.434;6.786;2023-04-24T14:39:14;2.10;;;1.40;;
36855;SDS011;22788;51.434;6.786;2023-04-24T14:41:40;3.27;;;1.40;;